createdAt,value
2022-08-25T00:02:55.175Z,32.9981
2022-08-25T00:07:57.560Z,32.21565
2022-08-25T00:12:59.163Z,32.93329
2022-08-25T00:18:00.755Z,30.54024
2022-08-25T00:23:02.449Z,30.94972
2022-08-25T00:28:08.256Z,32.38466
2022-08-25T00:33:10.357Z,33.4905
2022-08-25T00:38:12.329Z,32.9622
2022-08-25T00:43:13.923Z,33.16265
2022-08-25T00:48:15.545Z,32.52221
2022-08-25T00:53:17.127Z,31.57903
2022-08-25T00:58:18.763Z,30.95162
2022-08-25T01:03:20.384Z,28.73493
2022-08-25T01:08:21.989Z,28.08086
2022-08-25T01:13:23.602Z,28.83118
2022-08-25T01:18:25.208Z,29.28449
2022-08-25T01:23:26.815Z,28.67108
2022-08-25T01:28:28.420Z,28.52908
2022-08-25T01:33:30.101Z,29.13836
2022-08-25T01:38:31.743Z,28.25653
2022-08-25T01:43:33.350Z,28.25811
2022-08-25T01:48:34.976Z,28.6571
2022-08-25T01:53:36.601Z,28.53448
2022-08-25T01:58:38.184Z,27.57387
2022-08-25T02:03:42.077Z,28.17076
2022-08-25T02:08:44.092Z,27.67266
2022-08-25T02:13:45.705Z,26.22986
2022-08-25T02:18:47.482Z,25.53673
2022-08-25T02:23:49.142Z,25.15841
2022-08-25T02:28:50.763Z,24.28582
2022-08-25T02:33:52.354Z,24.3287
2022-08-25T02:38:53.968Z,24.93383
2022-08-25T02:43:55.593Z,23.88304
2022-08-25T02:48:57.174Z,26.01417
2022-08-25T02:53:58.816Z,26.15267
2022-08-25T02:59:00.440Z,25.34678
2022-08-25T03:04:02.356Z,25.39919
2022-08-25T03:09:03.982Z,25.57644
2022-08-25T03:14:05.594Z,25.64759
2022-08-25T03:19:07.194Z,25.1222
2022-08-25T03:24:09.028Z,24.63492
2022-08-25T03:29:10.701Z,23.57937
2022-08-25T03:34:12.304Z,23.94117
2022-08-25T03:39:13.901Z,23.44247
2022-08-25T03:44:15.546Z,22.98156
2022-08-25T03:49:17.163Z,22.59023
2022-08-25T03:54:18.761Z,22.30594
2022-08-25T03:59:20.549Z,21.93747
2022-08-25T04:04:22.171Z,21.31871
2022-08-25T04:09:23.923Z,21.80883
2022-08-25T04:14:25.499Z,22.63597
2022-08-25T04:19:27.099Z,23.26427
2022-08-25T04:24:28.918Z,23.81094
2022-08-25T04:29:30.496Z,24.25437
2022-08-25T04:34:32.122Z,21.9775
2022-08-25T04:39:33.743Z,22.38185
2022-08-25T04:44:35.370Z,21.91651
2022-08-25T04:49:36.952Z,20.99758
2022-08-25T04:54:38.536Z,21.91397
2022-08-25T04:59:40.121Z,21.64334
2022-08-25T05:04:41.727Z,22.26274
2022-08-25T05:09:43.349Z,22.47588
2022-08-25T05:14:44.978Z,22.23447
2022-08-25T05:19:46.548Z,22.13282
2022-08-25T05:24:48.115Z,22.27227
2022-08-25T05:29:49.698Z,21.82312
2022-08-25T05:34:51.318Z,21.99433
2022-08-25T05:39:53.015Z,21.83392
2022-08-25T05:44:54.688Z,21.76817
2022-08-25T05:49:56.324Z,21.84123
2022-08-25T05:54:58.363Z,22.30816
2022-08-25T06:00:00.036Z,21.73196
2022-08-25T06:05:01.769Z,21.79708
2022-08-25T06:10:03.373Z,21.48007
2022-08-25T06:15:04.938Z,21.6192
2022-08-25T06:20:06.541Z,20.43219
2022-08-25T06:25:08.881Z,19.46086
2022-08-25T06:30:10.523Z,19.90745
2022-08-25T06:35:12.515Z,20.17014
2022-08-25T06:40:14.123Z,19.21406
2022-08-25T06:45:15.845Z,18.49273
2022-08-25T06:50:17.391Z,19.01459
2022-08-25T06:55:18.991Z,19.26298
2022-08-25T07:00:20.655Z,18.45747
2022-08-25T07:05:33.673Z,19.80422
2022-08-25T07:10:42.445Z,19.55329
2022-08-25T07:15:50.076Z,18.82306
2022-08-25T07:20:56.036Z,19.34175
2022-08-25T07:25:57.644Z,20.09232
2022-08-25T07:30:59.293Z,19.81661
2022-08-25T07:36:01.149Z,19.41354
2022-08-25T07:41:02.786Z,19.57489
2022-08-25T07:46:04.391Z,18.37457
2022-08-25T07:51:05.959Z,18.97838
2022-08-25T07:56:10.202Z,19.55933
2022-08-25T08:01:11.806Z,17.37659
2022-08-25T08:06:13.386Z,19.20549
2022-08-25T08:11:14.950Z,19.01046
2022-08-25T08:16:16.620Z,18.08648
2022-08-25T08:21:19.944Z,18.64836
2022-08-25T08:26:22.525Z,18.27801
2022-08-25T08:31:38.629Z,19.094
2022-08-25T08:36:40.324Z,18.39458
2022-08-25T08:42:09.488Z,19.01205
2022-08-25T08:47:13.433Z,18.83799
2022-08-25T08:52:15.912Z,18.55435
2022-08-25T08:57:18.203Z,18.51941
2022-08-25T09:02:37.867Z,18.79701
2022-08-25T09:07:42.320Z,18.44667
2022-08-25T09:12:47.546Z,18.53783
2022-08-25T09:17:53.592Z,18.15096
2022-08-25T09:22:56.667Z,17.62592
2022-08-25T09:28:00.328Z,18.30691
2022-08-25T09:33:01.990Z,18.22719
2022-08-25T09:38:03.619Z,17.76599
2022-08-25T09:43:05.243Z,17.26955
2022-08-25T09:48:07.117Z,16.38846
2022-08-25T09:53:15.220Z,17.6634
2022-08-25T09:58:19.408Z,16.63367
2022-08-25T10:03:24.638Z,17.29591
2022-08-25T10:08:26.738Z,16.73943
2022-08-25T10:13:28.427Z,16.97035
2022-08-25T10:18:30.099Z,17.55509
2022-08-25T10:23:31.759Z,16.68099
2022-08-25T10:28:33.352Z,17.25335
2022-08-25T10:33:34.953Z,16.89952
2022-08-25T10:38:37.219Z,16.95256
2022-08-25T10:43:39.038Z,17.15076
2022-08-25T10:48:40.690Z,15.73258
2022-08-25T10:53:43.020Z,16.91635
2022-08-25T10:58:44.634Z,16.29095
2022-08-25T11:03:46.227Z,16.52123
2022-08-25T11:08:49.179Z,16.98146
2022-08-25T11:13:50.751Z,16.66289
2022-08-25T11:18:52.588Z,16.47168
2022-08-25T11:23:54.194Z,17.04181
2022-08-25T11:28:56.588Z,16.58666
2022-08-25T11:33:58.477Z,16.83631
2022-08-25T11:39:00.840Z,16.50312
2022-08-25T11:44:03.074Z,17.04657
2022-08-25T11:49:04.676Z,16.74674
2022-08-25T11:54:07.753Z,15.70621
2022-08-25T11:59:09.394Z,16.32716
2022-08-25T12:04:11.056Z,16.32621
2022-08-25T12:09:12.726Z,15.2209
2022-08-25T12:14:14.323Z,15.96762
2022-08-25T12:19:15.945Z,15.74719
2022-08-25T12:24:18.666Z,16.61302
2022-08-25T12:29:21.482Z,16.52885
2022-08-25T12:34:26.698Z,16.28047
2022-08-25T12:39:28.666Z,16.33574
2022-08-25T12:44:30.283Z,16.36146
2022-08-25T12:49:31.934Z,16.25157
2022-08-25T12:54:33.526Z,15.82088
2022-08-25T12:59:35.396Z,16.01113
2022-08-25T13:04:37.017Z,15.4445
2022-08-25T13:09:38.651Z,16.17534
2022-08-25T13:14:40.285Z,15.9854
2022-08-25T13:19:41.872Z,16.01081
2022-08-25T13:24:43.573Z,15.86502
2022-08-25T13:29:46.344Z,15.56138
2022-08-25T13:39:56.161Z,16.49741
2022-08-25T13:44:58.542Z,15.54772
2022-08-25T13:50:00.848Z,15.60331
2022-08-25T13:55:04.794Z,15.55566
2022-08-25T14:00:06.605Z,15.84057
2022-08-25T14:05:11.202Z,15.96984
2022-08-25T14:10:12.814Z,16.02828
2022-08-25T14:15:14.452Z,16.14358
2022-08-25T14:20:16.069Z,15.95872
2022-08-25T14:25:17.675Z,16.28555
2022-08-25T14:30:28.872Z,15.95237
2022-08-25T14:35:31.408Z,16.09053
2022-08-25T14:40:34.469Z,16.19185
2022-08-25T14:45:36.267Z,16.22521
2022-08-25T14:50:37.920Z,16.01081
2022-08-25T14:55:42.946Z,16.16486
2022-08-25T15:00:45.657Z,16.31763
2022-08-25T15:05:49.046Z,15.84025
2022-08-25T15:10:52.045Z,16.01494
2022-08-25T15:15:53.714Z,17.11709
2022-08-25T15:20:55.300Z,16.77247
2022-08-25T15:25:58.882Z,16.73626
2022-08-25T15:31:00.487Z,17.40803
2022-08-25T15:36:02.335Z,17.52174
2022-08-25T15:41:04.865Z,18.20591
2022-08-25T15:46:06.790Z,17.89813
2022-08-25T15:51:08.413Z,17.47727
2022-08-25T15:56:11.196Z,19.0238
2022-08-25T16:01:12.917Z,19.60221
2022-08-25T16:06:14.635Z,20.16982
2022-08-25T16:11:16.285Z,20.30799
2022-08-25T16:16:17.964Z,22.42918
2022-08-25T16:21:20.235Z,23.27348
2022-08-25T16:26:21.851Z,24.35825
2022-08-25T16:31:23.678Z,25.18541
2022-08-25T16:36:25.459Z,25.78387
2022-08-25T16:41:28.921Z,25.81055
2022-08-25T16:46:33.666Z,26.1568
2022-08-25T16:51:35.317Z,26.34612
2022-08-25T16:56:37.069Z,26.56212
2022-08-25T17:01:38.845Z,26.22223
2022-08-25T17:06:51.790Z,26.14568
2022-08-25T17:11:54.539Z,26.828
2022-08-25T17:16:56.169Z,26.7632
2022-08-25T17:21:57.765Z,26.63296
2022-08-25T17:26:59.365Z,26.97286
2022-08-25T17:32:00.981Z,27.4036
2022-08-25T17:37:02.585Z,27.39217
2022-08-25T17:42:04.783Z,27.52717
2022-08-25T17:47:06.448Z,27.63137
2022-08-25T17:52:09.254Z,28.06974
2022-08-25T17:57:10.883Z,27.34642
2022-08-25T18:02:14.721Z,28.57228
2022-08-25T18:07:16.467Z,28.87756
2022-08-25T18:12:18.875Z,28.28893
2022-08-25T18:17:22.922Z,28.7632
2022-08-25T18:22:24.664Z,29.62852
2022-08-25T18:27:26.237Z,29.70508
2022-08-25T18:32:27.835Z,30.00623
2022-08-25T18:37:30.904Z,30.22225
2022-08-25T18:42:32.777Z,30.34646
2022-08-25T18:47:34.440Z,30.29627
2022-08-25T18:52:36.056Z,30.71623
2022-08-25T18:57:42.662Z,30.76165
2022-08-25T19:02:46.914Z,30.77436
2022-08-25T19:07:51.891Z,30.28133
2022-08-25T19:12:54.913Z,31.15684
2022-08-25T19:17:58.658Z,30.95543
2022-08-25T19:23:00.189Z,30.60663
2022-08-25T19:28:02.048Z,30.06881
2022-08-25T19:33:03.651Z,29.89314
2022-08-25T19:38:19.987Z,28.39661
2022-08-25T19:43:37.666Z,30.37378
2022-08-25T19:48:40.162Z,30.85473
2022-08-25T19:53:41.775Z,29.58754
2022-08-25T19:58:44.503Z,30.71019
2022-08-25T20:03:46.073Z,30.73402
2022-08-25T20:08:47.693Z,31.96151
2022-08-25T20:14:03.836Z,33.04607
2022-08-25T20:19:05.866Z,33.61757
2022-08-25T20:24:11.029Z,31.84683
2022-08-25T20:29:12.649Z,32.35257
2022-08-25T20:34:14.264Z,32.91169
2022-08-25T20:39:15.906Z,33.09276
2022-08-25T20:44:17.550Z,34.39939
2022-08-25T20:49:19.160Z,35.06018
2022-08-25T20:54:20.773Z,36.09966
2022-08-25T20:59:22.423Z,36.42244
2022-08-25T21:04:24.438Z,37.21254
2022-08-25T21:09:26.099Z,36.11714
2022-08-25T21:14:27.720Z,35.61137
2022-08-25T21:19:30.036Z,36.42625
2022-08-25T21:24:31.923Z,36.18925
2022-08-25T21:29:33.559Z,36.42021
2022-08-25T21:34:35.234Z,35.57039
2022-08-25T21:39:37.133Z,35.14405
2022-08-25T21:44:39.147Z,30.20255
2022-08-25T21:49:40.828Z,28.56498
2022-08-25T21:54:42.447Z,29.20126
2022-08-25T21:59:44.054Z,29.29878
2022-08-25T22:04:45.659Z,29.18442
2022-08-25T22:09:47.268Z,27.53067
2022-08-25T22:14:48.899Z,29.43284
2022-08-25T22:19:53.687Z,26.30705
2022-08-25T22:24:55.691Z,25.05708
2022-08-25T22:29:57.557Z,25.99225
2022-08-25T22:34:59.143Z,25.8798
2022-08-25T22:40:00.945Z,25.65935
2022-08-25T22:45:03.274Z,26.9071
2022-08-25T22:50:04.876Z,26.8998
2022-08-25T22:55:06.524Z,24.93923
2022-08-25T23:00:12.868Z,26.1838
2022-08-25T23:05:14.939Z,27.73619
2022-08-25T23:10:16.653Z,27.72698
2022-08-25T23:15:18.257Z,26.24669
2022-08-25T23:20:19.924Z,28.77908
2022-08-25T23:25:23.051Z,26.03386
2022-08-25T23:30:27.130Z,26.75621
2022-08-25T23:35:28.909Z,26.86866
2022-08-25T23:40:31.205Z,25.91061
2022-08-25T23:45:33.218Z,26.93283
2022-08-25T23:50:34.841Z,27.26701
2022-08-25T23:55:36.417Z,28.30926
